Time;durP1;ratioP1;P1;durP2;ratioP2;P2;SDS_P1;SDS_P2;PMS_P1;PMS_P2;Temp;Humidity;BMP_temperature;BMP_pressure;BME280_temperature;BME280_humidity;BME280_pressure;Samples;Min_cycle;Max_cycle;Signal;HPM_P1;HPM_P2
2024/04/21 00:01:29;;;;;;;12.48;7.10;;;;;;;7.32;79.82;94059.03;5488729;26;20092;-66
2024/04/21 00:03:55;;;;;;;9.85;6.90;;;;;;;7.34;79.71;94054.56;5505674;26;20030;-66
2024/04/21 00:06:20;;;;;;;9.43;6.57;;;;;;;7.29;79.38;94057.50;5489311;26;20328;-66
2024/04/21 00:08:46;;;;;;;11.38;6.72;;;;;;;7.25;79.08;94056.13;5437684;26;20356;-66
2024/04/21 00:11:11;;;;;;;9.25;6.15;;;;;;;7.16;79.28;94051.72;5456670;26;20078;-66
2024/04/21 00:13:36;;;;;;;14.38;7.18;;;;;;;7.22;79.17;94060.75;5494802;26;20002;-66
2024/04/21 00:16:02;;;;;;;9.13;6.50;;;;;;;7.22;79.52;94060.75;5425879;26;20013;-66
2024/04/21 00:18:27;;;;;;;14.57;7.13;;;;;;;7.11;79.84;94059.03;5500009;26;19998;-66
2024/04/21 00:20:53;;;;;;;10.43;6.90;;;;;;;7.16;79.85;94068.03;5454893;26;20006;-66
2024/04/21 00:23:18;;;;;;;9.00;6.22;;;;;;;7.15;79.91;94061.22;5507568;26;20057;-66
2024/04/21 00:25:43;;;;;;;10.75;7.35;;;;;;;7.20;80.03;94068.59;5498460;26;20006;-66
2024/04/21 00:28:09;;;;;;;9.40;6.82;;;;;;;7.07;80.37;94048.09;5418170;26;20439;-66
2024/04/21 00:30:35;;;;;;;10.57;6.82;;;;;;;6.96;81.52;94076.56;5457206;26;20012;-67
2024/04/21 00:33:00;;;;;;;10.05;6.78;;;;;;;7.40;80.44;94077.31;5459036;26;20504;-66
2024/04/21 00:35:26;;;;;;;10.30;6.95;;;;;;;7.27;80.85;94062.00;5517004;26;20006;-66
2024/04/21 00:37:51;;;;;;;10.30;6.70;;;;;;;7.30;81.08;94064.31;5463934;26;20038;-67
2024/04/21 00:40:16;;;;;;;10.15;6.47;;;;;;;7.37;80.73;94074.97;5481058;26;19994;-66
2024/04/21 00:42:42;;;;;;;12.27;8.02;;;;;;;7.47;80.39;94082.81;5487007;26;20038;-66
2024/04/21 00:45:07;;;;;;;10.30;7.22;;;;;;;7.58;80.97;94078.38;5484066;26;20002;-66
2024/04/21 00:47:34;;;;;;;11.35;7.05;;;;;;;7.37;80.67;94074.97;5453233;26;20167;-66
2024/04/21 00:49:59;;;;;;;10.60;7.07;;;;;;;7.09;81.25;94045.41;5464125;26;20358;-66
2024/04/21 00:52:24;;;;;;;11.07;7.53;;;;;;;7.27;82.08;94082.66;5451568;26;19999;-66
2024/04/21 00:54:50;;;;;;;11.70;6.80;;;;;;;7.15;82.05;94079.28;5470943;26;20013;-66
2024/04/21 00:57:15;;;;;;;11.93;7.70;;;;;;;7.23;81.67;94077.88;5472808;26;20058;-66
2024/04/21 00:59:41;;;;;;;10.60;7.75;;;;;;;7.11;81.49;94059.03;5474318;26;19994;-66
2024/04/21 01:02:06;;;;;;;12.77;6.95;;;;;;;7.30;81.31;94086.75;5453848;26;20022;-66
2024/04/21 01:04:32;;;;;;;9.43;6.80;;;;;;;7.18;80.94;94085.16;5483870;26;20037;-66
2024/04/21 01:06:57;;;;;;;10.95;7.40;;;;;;;7.21;80.85;94090.88;5446210;26;20370;-66
2024/04/21 01:09:22;;;;;;;12.05;7.13;;;;;;;7.18;80.46;94080.81;5476162;26;20006;-66
2024/04/21 01:11:48;;;;;;;12.95;7.85;;;;;;;6.92;81.43;94085.50;5476593;26;19998;-66
2024/04/21 01:14:14;;;;;;;11.10;7.57;;;;;;;6.84;81.46;94087.88;5448253;26;20028;-66
2024/04/21 01:16:39;;;;;;;10.63;6.95;;;;;;;6.36;82.50;94054.69;5461440;26;19998;-67
2024/04/21 01:19:04;;;;;;;10.32;7.40;;;;;;;6.70;82.05;94094.13;5480740;26;20507;-66
2024/04/21 01:21:30;;;;;;;10.57;7.38;;;;;;;6.60;82.17;94091.47;5452227;26;20002;-66
2024/04/21 01:23:55;;;;;;;12.57;7.72;;;;;;;6.40;82.85;94084.44;5437061;26;20006;-66
2024/04/21 01:26:21;;;;;;;11.65;7.60;;;;;;;6.28;82.82;94065.59;5485802;26;20002;-66
2024/04/21 01:28:47;;;;;;;13.57;8.18;;;;;;;6.40;82.73;94058.63;5473156;26;20406;-66
2024/04/21 01:31:12;;;;;;;18.77;10.52;;;;;;;6.43;82.80;94084.19;5459814;26;20024;-66
2024/04/21 01:33:37;;;;;;;15.90;8.93;;;;;;;6.34;82.87;94077.19;5481219;26;20017;-66
2024/04/21 01:36:03;;;;;;;15.27;8.48;;;;;;;6.30;82.11;94047.44;5451434;26;19990;-66
2024/04/21 01:38:28;;;;;;;14.15;9.40;;;;;;;6.28;82.62;94072.50;5486665;26;20005;-66
2024/04/21 01:40:55;;;;;;;12.52;8.23;;;;;;;6.20;83.21;94073.91;5483856;26;20444;-66
2024/04/21 01:43:20;;;;;;;13.88;7.90;;;;;;;6.22;82.92;94076.38;5490695;26;20016;-66
2024/04/21 01:45:46;;;;;;;11.63;7.07;;;;;;;6.23;83.16;94078.81;5460165;26;19997;-67
2024/04/21 01:48:11;;;;;;;11.68;7.25;;;;;;;6.33;82.73;94060.91;5520987;25;21083;-67
2024/04/21 01:50:37;;;;;;;11.00;7.20;;;;;;;6.36;82.58;94070.16;5490137;26;20063;-66
2024/04/21 01:53:02;;;;;;;10.63;6.78;;;;;;;6.45;81.74;94075.41;5491267;26;20005;-67
2024/04/21 01:55:28;;;;;;;10.70;7.18;;;;;;;6.31;81.88;94075.66;5525913;26;20005;-67
2024/04/21 01:57:54;;;;;;;9.32;6.40;;;;;;;6.26;81.95;94073.44;5522614;25;20024;-67
2024/04/21 02:00:19;;;;;;;10.75;6.45;;;;;;;6.24;82.31;94077.91;5458696;26;20069;-66
2024/04/21 02:02:44;;;;;;;8.40;6.20;;;;;;;6.17;82.62;94074.16;5524434;25;20371;-67
2024/04/21 02:05:10;;;;;;;9.23;6.82;;;;;;;6.19;82.37;94068.88;5495025;26;19989;-66
2024/04/21 02:07:36;;;;;;;9.13;6.53;;;;;;;6.22;82.69;94072.03;5490737;26;19989;-67
2024/04/21 02:10:02;;;;;;;9.70;6.40;;;;;;;6.13;82.51;94049.56;5459207;26;20118;-66
2024/04/21 02:12:27;;;;;;;8.23;5.88;;;;;;;6.25;82.38;94070.97;5524774;25;20006;-66
2024/04/21 02:14:53;;;;;;;9.43;6.60;;;;;;;6.24;82.70;94075.31;5461252;26;20081;-67
2024/04/21 02:17:18;;;;;;;9.55;6.25;;;;;;;6.30;82.88;94073.22;5522065;25;20023;-67
2024/04/21 02:19:43;;;;;;;10.30;6.60;;;;;;;6.28;83.47;94065.59;5460213;26;20041;-67
2024/04/21 02:22:09;;;;;;;9.50;6.40;;;;;;;6.23;83.37;94053.03;5462206;26;20514;-67
2024/04/21 02:24:42;;;;;;;10.30;6.65;;;;;;;6.20;83.42;94068.75;5459715;26;20069;-67
2024/04/21 02:27:07;;;;;;;10.85;6.57;;;;;;;6.01;83.41;94040.16;5462823;26;20007;-67
2024/04/21 02:29:32;;;;;;;8.15;6.43;;;;;;;6.21;83.24;94067.84;5489651;26;20026;-67
2024/04/21 02:31:58;;;;;;;9.43;6.75;;;;;;;6.13;83.15;94061.59;5489970;26;20025;-66
2024/04/21 02:34:23;;;;;;;9.55;7.05;;;;;;;6.17;83.54;94057.88;5495508;26;20021;-67
2024/04/21 02:36:49;;;;;;;9.43;6.22;;;;;;;6.17;82.79;94053.50;5520404;25;20443;-66
2024/04/21 02:39:15;;;;;;;9.48;6.22;;;;;;;6.16;82.61;94061.38;5488099;26;20002;-67
2024/04/21 02:41:40;;;;;;;9.95;6.30;;;;;;;6.12;82.94;94059.97;5521822;25;20392;-66
2024/04/21 02:44:07;;;;;;;8.63;6.15;;;;;;;5.80;83.53;94037.47;5492030;26;20002;-66
2024/04/21 02:46:32;;;;;;;9.38;6.53;;;;;;;6.03;83.28;94054.59;5490310;26;19989;-66
2024/04/21 02:48:58;;;;;;;8.18;5.93;;;;;;;6.07;82.50;94065.47;5483895;26;20029;-66
2024/04/21 02:51:23;;;;;;;8.40;6.38;;;;;;;6.12;82.33;94068.53;5431114;26;19997;-66
2024/04/21 02:53:49;;;;;;;8.23;6.15;;;;;;;5.93;82.82;94063.94;5518378;26;20013;-66
2024/04/21 02:56:14;;;;;;;8.70;6.18;;;;;;;5.80;82.52;94046.00;5490019;25;20034;-66
2024/04/21 02:58:39;;;;;;;9.10;5.88;;;;;;;5.86;82.89;94060.19;5455735;26;20511;-67
2024/04/21 03:01:05;;;;;;;10.77;6.57;;;;;;;5.68;83.46;94031.47;5460943;25;20013;-67
2024/04/21 03:03:30;;;;;;;7.35;5.55;;;;;;;5.80;83.63;94061.47;5482344;26;20001;-66
2024/04/21 03:05:56;;;;;;;8.63;6.07;;;;;;;5.86;83.36;94055.03;5462518;26;20074;-66
2024/04/21 03:08:21;;;;;;;9.75;5.78;;;;;;;5.75;83.36;94055.03;5456460;26;20345;-67
2024/04/21 03:10:47;;;;;;;7.97;5.90;;;;;;;5.73;83.34;94062.03;5488693;26;20140;-67
2024/04/21 03:13:12;;;;;;;7.78;5.82;;;;;;;5.79;83.48;94062.41;5431890;26;20041;-68
2024/04/21 03:15:38;;;;;;;6.40;5.07;;;;;;;5.78;83.43;94055.59;5460032;26;20489;-67
2024/04/21 03:18:04;;;;;;;7.50;5.63;;;;;;;5.62;83.39;94031.94;5523651;25;20001;-66
2024/04/21 03:20:29;;;;;;;6.78;5.40;;;;;;;5.71;83.43;94059.59;5523779;26;20058;-68
2024/04/21 03:22:54;;;;;;;6.85;5.30;;;;;;;5.58;83.89;94051.97;5490929;26;20388;-67
2024/04/21 03:25:20;;;;;;;7.72;6.32;;;;;;;5.61;83.97;94056.06;5461754;26;19997;-66
2024/04/21 03:27:45;;;;;;;6.43;5.20;;;;;;;5.58;84.08;94043.41;5494611;26;20008;-67
2024/04/21 03:30:10;;;;;;;7.10;5.07;;;;;;;5.55;83.84;94059.94;5521996;26;20012;-67
2024/04/21 03:32:36;;;;;;;8.20;5.50;;;;;;;5.62;83.86;94062.03;5525301;26;19994;-67
2024/04/21 03:35:02;;;;;;;6.80;4.97;;;;;;;5.58;83.91;94043.41;5494434;26;20041;-66
2024/04/21 03:37:27;;;;;;;5.75;4.55;;;;;;;5.71;83.54;94051.88;5464011;26;20010;-67
2024/04/21 03:39:52;;;;;;;6.30;4.78;;;;;;;5.74;83.16;94056.78;5521446;26;20368;-67
2024/04/21 03:42:18;;;;;;;6.28;4.93;;;;;;;5.63;83.38;94048.22;5491293;26;20521;-67
2024/04/21 03:44:43;;;;;;;6.70;4.75;;;;;;;5.62;83.92;94051.72;5462126;26;20069;-66
2024/04/21 03:47:09;;;;;;;7.07;4.95;;;;;;;5.61;83.39;94050.91;5522031;25;20000;-65
2024/04/21 03:49:34;;;;;;;6.00;4.53;;;;;;;5.59;83.59;94043.28;5520651;26;20029;-66
2024/04/21 03:51:59;;;;;;;6.72;4.60;;;;;;;5.64;82.81;94045.53;5467642;26;20009;-66
2024/04/21 03:54:25;;;;;;;5.57;4.68;;;;;;;5.59;82.71;94035.56;5492375;26;20029;-66
2024/04/21 03:56:50;;;;;;;5.60;4.40;;;;;;;5.60;82.77;94059.59;5463506;26;20451;-66
2024/04/21 03:59:16;;;;;;;5.78;4.45;;;;;;;5.51;83.53;94062.84;5499471;26;19997;-66
2024/04/21 04:01:43;;;;;;;6.97;4.65;;;;;;;5.41;83.58;94054.16;5525285;25;20004;-66
2024/04/21 04:04:09;;;;;;;7.10;5.38;;;;;;;5.35;84.32;94061.41;5477963;26;20005;-66
2024/04/21 04:06:34;;;;;;;5.72;4.45;;;;;;;5.46;83.62;94057.19;5489250;26;20012;-65
2024/04/21 04:08:59;;;;;;;5.43;4.25;;;;;;;5.31;83.39;94034.22;5496952;26;19997;-66
2024/04/21 04:11:25;;;;;;;5.72;4.80;;;;;;;5.52;83.48;94061.91;5525845;25;20006;-66
2024/04/21 04:13:50;;;;;;;6.20;4.63;;;;;;;5.59;83.76;94074.22;5457466;26;20001;-65
2024/04/21 04:16:16;;;;;;;5.30;4.43;;;;;;;5.64;83.47;94070.47;5481884;26;19994;-66
2024/04/21 04:18:41;;;;;;;8.38;5.50;;;;;;;5.64;83.42;94076.44;5513849;26;20497;-66
2024/04/21 04:21:06;;;;;;;7.20;5.50;;;;;;;5.74;83.42;94076.56;5526046;25;20070;-65
2024/04/21 04:23:32;;;;;;;7.25;5.95;;;;;;;5.86;83.42;94085.16;5492620;26;20007;-66
2024/04/21 04:25:57;;;;;;;8.27;6.40;;;;;;;6.09;83.19;94081.66;5507234;26;19998;-66
2024/04/21 04:28:23;;;;;;;11.18;8.57;;;;;;;6.12;83.60;94085.75;5525221;26;20002;-65
2024/04/21 04:30:48;;;;;;;9.88;8.13;;;;;;;6.06;84.10;94081.06;5523707;26;20002;-66
2024/04/21 04:33:14;;;;;;;10.40;7.88;;;;;;;5.96;83.69;94080.94;5525475;25;20041;-66
2024/04/21 04:35:39;;;;;;;8.60;7.45;;;;;;;6.11;83.60;94086.72;5493816;26;20165;-66
2024/04/21 04:38:04;;;;;;;8.13;7.32;;;;;;;6.21;83.82;94091.03;5486737;26;20038;-66
2024/04/21 04:40:32;;;;;;;7.50;6.63;;;;;;;6.16;83.33;94071.72;5487523;26;20346;-66
2024/04/21 04:42:57;;;;;;;7.50;6.63;;;;;;;6.12;83.54;94065.94;5461691;26;20018;-66
2024/04/21 04:45:23;;;;;;;8.50;6.65;;;;;;;6.33;83.84;94076.38;5478747;26;20010;-66
2024/04/21 04:47:48;;;;;;;8.00;7.05;;;;;;;6.40;84.22;94085.25;5466137;26;20304;-66
2024/04/21 04:50:14;;;;;;;8.18;6.63;;;;;;;6.66;82.48;94087.59;5483045;26;19998;-66
2024/04/21 04:52:39;;;;;;;7.93;6.75;;;;;;;6.59;82.41;94083.81;5450358;26;20448;-66
2024/04/21 04:55:05;;;;;;;4.55;3.97;;;;;;;6.86;81.50;94089.38;5486848;26;20074;-66
2024/04/21 04:57:30;;;;;;;6.70;3.47;;;;;;;6.79;80.96;94095.16;5453926;26;20022;-66
2024/04/21 04:59:56;;;;;;;4.22;3.53;;;;;;;6.77;80.95;94087.56;5486146;26;20392;-66
2024/04/21 05:02:21;;;;;;;4.40;3.55;;;;;;;6.67;80.32;94056.47;5442671;26;20456;-66
2024/04/21 05:04:47;;;;;;;4.03;3.10;;;;;;;6.94;79.66;94076.69;5515843;26;20002;-66
2024/04/21 05:07:12;;;;;;;4.18;3.13;;;;;;;7.03;79.28;94085.47;5480959;26;20024;-65
2024/04/21 05:09:37;;;;;;;3.78;3.38;;;;;;;7.14;79.14;94092.34;5481017;26;20034;-66
2024/04/21 05:12:03;;;;;;;3.67;3.08;;;;;;;7.11;79.22;94096.00;5480655;26;20022;-66
2024/04/21 05:14:29;;;;;;;3.78;3.25;;;;;;;7.06;79.63;94087.78;5483991;26;20018;-66
2024/04/21 05:16:54;;;;;;;3.58;3.00;;;;;;;7.06;79.91;94098.13;5486177;26;20016;-66
2024/04/21 05:19:20;;;;;;;4.53;4.03;;;;;;;6.99;80.87;94096.16;5485372;26;20001;-66
2024/04/21 05:21:45;;;;;;;7.18;5.95;;;;;;;7.26;79.93;94098.28;5482315;26;20006;-66
2024/04/21 05:24:10;;;;;;;7.97;7.10;;;;;;;7.29;80.28;94100.59;5484266;26;20026;-66
2024/04/21 05:26:36;;;;;;;7.68;6.88;;;;;;;7.42;80.60;94095.28;5488287;26;20512;-66
2024/04/21 05:29:01;;;;;;;10.93;8.20;;;;;;;7.32;81.10;94097.78;5483696;26;20007;-65
2024/04/21 05:31:27;;;;;;;9.13;7.43;;;;;;;7.28;81.96;94114.47;5485272;26;19997;-66
2024/04/21 05:33:52;;;;;;;8.02;6.95;;;;;;;7.28;81.94;94099.78;5483420;26;20008;-67
2024/04/21 05:36:17;;;;;;;5.97;5.30;;;;;;;7.76;79.32;94106.22;5484462;26;20356;-65
2024/04/21 05:38:43;;;;;;;6.53;5.60;;;;;;;7.90;78.90;94111.06;5481483;26;20039;-70
2024/04/21 05:41:08;;;;;;;6.93;5.75;;;;;;;7.92;78.65;94104.03;5479437;26;19995;-68
2024/04/21 05:43:33;;;;;;;6.97;5.45;;;;;;;7.94;77.30;94103.88;5482684;26;20001;-68
2024/04/21 05:46:00;;;;;;;7.35;5.70;;;;;;;8.01;77.03;94103.25;5441584;26;19991;-67
2024/04/21 05:48:25;;;;;;;72.72;40.42;;;;;;;7.89;77.64;94103.47;5471161;26;20002;-65
2024/04/21 05:50:51;;;;;;;18.65;11.15;;;;;;;7.77;78.65;94095.78;5473982;26;20010;-64
2024/04/21 05:53:16;;;;;;;12.35;7.88;;;;;;;8.20;77.52;94102.50;5446396;26;20009;-64
2024/04/21 05:55:42;;;;;;;7.80;6.38;;;;;;;8.13;78.09;94097.97;5475108;26;20002;-65
2024/04/21 05:58:07;;;;;;;8.43;6.25;;;;;;;7.99;78.42;94091.38;5488556;26;20006;-65
2024/04/21 06:00:32;;;;;;;6.53;5.82;;;;;;;7.80;76.11;94086.91;5442290;26;20003;-66
2024/04/21 06:02:58;;;;;;;9.98;6.35;;;;;;;8.07;75.86;94100.13;5483857;26;20039;-66
2024/04/21 06:05:23;;;;;;;8.13;5.95;;;;;;;8.36;75.20;94091.69;5473555;26;20040;-66
2024/04/21 06:07:49;;;;;;;6.75;5.70;;;;;;;8.24;75.92;94108.25;5485577;26;20340;-66
2024/04/21 06:10:14;;;;;;;6.90;5.78;;;;;;;8.46;75.37;94105.50;5484389;26;20011;-66
2024/04/21 06:12:40;;;;;;;7.22;5.60;;;;;;;8.30;76.05;94115.47;5448633;26;19998;-66
2024/04/21 06:15:05;;;;;;;6.47;5.78;;;;;;;8.19;76.60;94118.16;5479172;26;20007;-66
2024/04/21 06:17:31;;;;;;;7.70;5.65;;;;;;;8.10;76.46;94111.19;5490245;26;20053;-66
2024/04/21 06:19:56;;;;;;;6.75;5.68;;;;;;;8.45;76.41;94116.81;5492132;26;19994;-66
2024/04/21 06:22:21;;;;;;;5.95;5.30;;;;;;;8.42;76.02;94119.66;5483216;26;20005;-66
2024/04/21 06:24:47;;;;;;;7.25;6.22;;;;;;;8.29;77.67;94103.50;5484276;26;20010;-66
2024/04/21 06:27:12;;;;;;;8.32;6.78;;;;;;;8.23;78.64;94116.97;5486534;26;20001;-66
2024/04/21 06:29:37;;;;;;;8.07;6.63;;;;;;;8.10;79.21;94112.00;5488258;26;20002;-66
2024/04/21 06:32:03;;;;;;;9.20;7.88;;;;;;;7.90;79.36;94103.31;5484196;26;20336;-66
2024/04/21 06:34:29;;;;;;;7.82;7.03;;;;;;;8.16;79.77;94123.59;5452978;26;20101;-66
2024/04/21 06:36:55;;;;;;;8.50;7.03;;;;;;;8.40;80.11;94121.56;5478736;26;20067;-66
2024/04/21 06:39:20;;;;;;;9.77;8.00;;;;;;;8.25;80.01;94118.47;5523638;26;20029;-66
2024/04/21 06:41:46;;;;;;;10.45;7.85;;;;;;;8.36;80.45;94121.91;5522568;25;20479;-66
2024/04/21 06:44:11;;;;;;;10.57;7.93;;;;;;;8.33;79.77;94120.41;5518972;25;20032;-66
2024/04/21 06:46:37;;;;;;;10.38;7.93;;;;;;;8.23;81.09;94124.72;5525783;25;20033;-66
2024/04/21 06:49:02;;;;;;;11.07;8.30;;;;;;;8.55;80.42;94119.41;5486850;26;20060;-66
2024/04/21 06:51:27;;;;;;;9.07;7.72;;;;;;;8.30;81.24;94128.41;5526885;25;20009;-66
2024/04/21 06:53:54;;;;;;;11.98;9.40;;;;;;;8.26;81.54;94124.47;5491715;26;20001;-66
2024/04/21 06:56:19;;;;;;;10.30;8.80;;;;;;;8.21;81.23;94118.84;5525304;25;19997;-66
2024/04/21 06:58:45;;;;;;;10.75;8.40;;;;;;;8.19;80.32;94108.66;5481456;26;19997;-66
2024/04/21 07:01:10;;;;;;;9.25;7.70;;;;;;;8.43;80.28;94125.66;5520669;25;20474;-67
2024/04/21 07:03:35;;;;;;;11.65;8.98;;;;;;;8.41;80.67;94123.22;5524191;26;20035;-67
2024/04/21 07:06:01;;;;;;;11.88;9.80;;;;;;;8.24;81.60;94116.00;5524579;25;20065;-66
2024/04/21 07:08:26;;;;;;;10.65;9.55;;;;;;;8.20;81.73;94117.22;5487871;26;20440;-67
2024/04/21 07:10:52;;;;;;;10.95;9.57;;;;;;;8.31;81.98;94117.13;5491484;26;20000;-66
2024/04/21 07:13:17;;;;;;;11.90;9.52;;;;;;;8.30;81.88;94118.06;5522427;25;20386;-66
2024/04/21 07:15:43;;;;;;;11.95;10.30;;;;;;;8.28;81.72;94099.28;5526077;26;19998;-67
2024/04/21 07:18:08;;;;;;;11.20;9.63;;;;;;;8.42;81.46;94109.31;5492222;26;19997;-67
2024/04/21 07:20:34;;;;;;;10.65;8.93;;;;;;;8.34;81.49;94105.72;5494184;26;19993;-66
2024/04/21 07:22:59;;;;;;;10.70;8.70;;;;;;;8.24;81.20;94075.41;5522132;25;20009;-67
2024/04/21 07:25:24;;;;;;;9.02;7.90;;;;;;;8.28;79.97;94094.91;5494123;26;20376;-66
2024/04/21 07:27:50;;;;;;;9.40;7.70;;;;;;;8.89;78.46;94099.19;5463512;26;19994;-66
2024/04/21 07:30:15;;;;;;;9.07;7.53;;;;;;;9.15;76.94;94088.31;5487079;26;20009;-67
2024/04/21 07:32:41;;;;;;;8.18;7.20;;;;;;;9.00;77.13;94094.84;5455383;26;19998;-67
2024/04/21 07:35:07;;;;;;;8.85;7.07;;;;;;;8.87;77.22;94098.50;5515398;26;20013;-66
2024/04/21 07:37:33;;;;;;;8.45;6.65;;;;;;;9.03;77.32;94087.63;5457178;26;20005;-67
2024/04/21 07:39:58;;;;;;;7.43;6.63;;;;;;;9.26;76.60;94101.13;5522202;25;20005;-67
2024/04/21 07:42:23;;;;;;;7.40;6.60;;;;;;;9.37;75.21;94080.25;5492100;26;20039;-67
2024/04/21 07:44:49;;;;;;;9.55;6.80;;;;;;;9.46;74.94;94085.59;5443100;26;20007;-67
2024/04/21 07:47:14;;;;;;;7.63;6.13;;;;;;;9.58;74.23;94087.06;5458994;26;20512;-66
2024/04/21 07:49:40;;;;;;;6.90;6.20;;;;;;;9.81;74.52;94090.19;5495622;26;20034;-67
2024/04/21 07:52:05;;;;;;;7.07;6.38;;;;;;;9.70;74.47;94085.97;5522087;25;19993;-67
2024/04/21 07:54:31;;;;;;;6.53;5.70;;;;;;;10.13;73.67;94071.63;5493891;26;20435;-67
2024/04/21 07:56:56;;;;;;;7.05;5.20;;;;;;;10.29;72.49;94071.88;5520481;25;20069;-67
2024/04/21 07:59:21;;;;;;;5.93;5.07;;;;;;;9.98;71.71;94067.88;5525582;26;20005;-67
2024/04/21 08:01:47;;;;;;;5.45;4.40;;;;;;;10.27;70.94;94068.59;5490721;26;20030;-67
2024/04/21 08:04:13;;;;;;;5.88;4.80;;;;;;;10.39;69.32;94071.00;5513131;25;20021;-68
2024/04/21 08:06:38;;;;;;;7.38;4.65;;;;;;;10.15;70.13;94061.13;5464391;26;20001;-67
2024/04/21 08:09:04;;;;;;;5.68;4.90;;;;;;;10.24;69.69;94058.47;5491117;26;20014;-67
2024/04/21 08:11:29;;;;;;;4.78;4.22;;;;;;;10.07;69.48;94031.50;5462928;26;20431;-67
2024/04/21 08:13:54;;;;;;;4.93;3.97;;;;;;;10.26;68.45;94056.56;5485486;26;20070;-67
2024/04/21 08:16:20;;;;;;;3.88;3.47;;;;;;;10.29;68.75;94050.31;5456409;26;20006;-67
2024/04/21 08:18:45;;;;;;;4.38;3.20;;;;;;;10.42;68.01;94035.22;5496160;26;20033;-67
2024/04/21 08:21:11;;;;;;;5.53;3.22;;;;;;;10.89;70.62;94055.00;5523740;25;20029;-67
2024/04/21 08:23:36;;;;;;;3.88;2.60;;;;;;;10.71;64.77;94045.41;5454496;26;20070;-67
2024/04/21 08:26:03;;;;;;;4.47;2.72;;;;;;;10.91;64.26;94055.69;5470177;25;20069;-67
2024/04/21 08:28:29;;;;;;;4.78;3.60;;;;;;;10.94;63.31;94065.78;5482312;26;19990;-67
2024/04/21 08:30:54;;;;;;;4.35;3.00;;;;;;;10.81;64.50;94060.97;5489713;26;20025;-67
2024/04/21 08:33:20;;;;;;;3.28;2.70;;;;;;;10.78;65.16;94055.22;5460865;26;20435;-67
2024/04/21 08:35:55;;;;;;;3.03;2.45;;;;;;;10.98;64.26;94059.34;5524948;26;19990;-67
2024/04/21 08:38:20;;;;;;;3.53;2.35;;;;;;;10.84;65.04;94059.84;5488441;26;19997;-67
2024/04/21 08:40:48;;;;;;;3.38;2.22;;;;;;;10.83;63.25;94068.59;5525148;26;20048;-67
2024/04/21 08:43:13;;;;;;;3.70;2.53;;;;;;;10.66;63.08;94067.59;5458265;26;20006;-67
2024/04/21 08:45:39;;;;;;;2.90;2.50;;;;;;;10.60;66.23;94053.41;5483779;26;20506;-67
2024/04/21 08:48:05;;;;;;;3.60;2.70;;;;;;;10.51;67.27;94064.69;5459979;26;20001;-67
2024/04/21 08:50:30;;;;;;;2.85;2.50;;;;;;;10.53;67.35;94057.56;5525459;26;20487;-70
2024/04/21 08:52:55;;;;;;;2.80;2.42;;;;;;;10.62;67.77;94055.88;5458157;26;20001;-69
2024/04/21 08:55:21;;;;;;;3.38;3.00;;;;;;;10.66;69.47;94054.59;5457124;26;20008;-70
2024/04/21 08:57:46;;;;;;;4.53;3.72;;;;;;;10.73;68.72;94058.28;5454601;26;20005;-71
2024/04/21 09:00:12;;;;;;;5.50;2.78;;;;;;;10.57;67.60;94069.28;5489341;26;20016;-71
2024/04/21 09:02:38;;;;;;;3.47;3.00;;;;;;;10.52;68.06;94053.31;5460359;26;20000;-70
2024/04/21 09:05:03;;;;;;;5.07;3.92;;;;;;;10.45;66.02;94054.88;5429474;26;20017;-66
2024/04/21 09:07:31;;;;;;;8.27;6.20;;;;;;;10.73;68.62;94073.84;5461752;26;20321;-67
2024/04/21 09:09:57;;;;;;;8.00;6.05;;;;;;;10.94;67.93;94063.19;5427744;26;20001;-67
2024/04/21 09:12:23;;;;;;;9.52;7.00;;;;;;;10.82;68.31;94056.56;5521798;25;19998;-67
2024/04/21 09:14:48;;;;;;;35.38;20.35;;;;;;;11.01;66.76;94056.44;5524649;26;20335;-67
2024/04/21 09:17:13;;;;;;;19.42;12.98;;;;;;;10.96;65.58;94048.25;5490481;26;19993;-67
2024/04/21 09:19:39;;;;;;;5.20;4.47;;;;;;;11.11;64.78;94061.56;5489349;26;20008;-66
2024/04/21 09:22:04;;;;;;;4.65;3.80;;;;;;;11.10;63.19;94055.53;5457874;26;20045;-66
2024/04/21 09:24:30;;;;;;;4.03;3.45;;;;;;;11.15;61.94;94048.13;5525196;26;20006;-66
2024/04/21 09:26:56;;;;;;;4.00;3.10;;;;;;;11.46;60.74;94045.13;5521873;25;20057;-65
2024/04/21 09:29:21;;;;;;;6.78;3.83;;;;;;;11.62;59.56;94047.84;5491547;26;19989;-68
2024/04/21 09:31:47;;;;;;;5.43;4.10;;;;;;;11.63;61.53;94048.66;5456395;26;20493;-65
2024/04/21 09:34:13;;;;;;;5.72;3.92;;;;;;;11.77;61.15;94044.69;5491399;26;20013;-65
2024/04/21 09:36:38;;;;;;;9.52;4.38;;;;;;;11.76;60.88;94037.88;5468888;25;22039;-65
2024/04/21 09:39:04;;;;;;;13.73;12.32;;;;;;;11.77;61.00;94048.09;5463741;26;20475;-65
2024/04/21 09:41:29;;;;;;;7.50;5.70;;;;;;;11.66;59.71;94037.13;5456428;26;20452;-65
2024/04/21 09:43:55;;;;;;;4.60;3.90;;;;;;;11.57;58.68;94034.47;5460829;26;20009;-65
2024/04/21 09:46:20;;;;;;;7.18;4.00;;;;;;;11.55;58.15;94025.19;5489008;26;20067;-65
2024/04/21 09:48:47;;;;;;;6.95;4.47;;;;;;;11.52;59.52;94026.31;5431252;26;20004;-65
2024/04/21 09:51:12;;;;;;;6.15;4.38;;;;;;;11.68;58.64;94028.22;5459638;25;19994;-66
2024/04/21 09:53:37;;;;;;;3.05;2.75;;;;;;;11.71;58.65;94019.28;5522280;26;20038;-66
2024/04/21 09:56:03;;;;;;;3.85;2.88;;;;;;;11.78;57.47;94015.09;5452407;26;20469;-66
2024/04/21 09:58:29;;;;;;;4.40;3.10;;;;;;;11.75;57.84;94024.00;5435073;26;19993;-66
2024/04/21 10:00:56;;;;;;;4.32;3.35;;;;;;;11.70;58.41;94022.84;5468279;26;20001;-66
2024/04/21 10:03:21;;;;;;;4.13;3.42;;;;;;;12.19;57.51;94023.16;5525888;25;20012;-66
2024/04/21 10:05:49;;;;;;;3.90;2.88;;;;;;;12.15;58.44;94029.66;5522276;26;19994;-66
2024/04/21 10:08:14;;;;;;;3.08;2.67;;;;;;;11.84;55.92;94011.91;5494498;26;20040;-66
2024/04/21 10:10:40;;;;;;;5.10;4.05;;;;;;;11.94;55.55;94030.03;5495011;26;20001;-66
2024/04/21 10:13:05;;;;;;;5.07;4.15;;;;;;;12.08;55.79;94016.44;5460471;26;20005;-66
2024/04/21 10:15:31;;;;;;;3.83;3.10;;;;;;;12.34;54.36;94024.22;5487249;26;20017;-66
2024/04/21 10:17:57;;;;;;;3.50;2.70;;;;;;;12.47;54.29;94023.75;5473249;26;19998;-65
2024/04/21 10:20:30;;;;;;;4.10;2.45;;;;;;;12.58;54.28;94018.25;5494522;26;20020;-65
2024/04/21 10:23:09;;;;;;;4.72;3.10;;;;;;;12.53;54.98;94016.09;5491069;26;20343;-65
2024/04/21 10:25:39;;;;;;;3.00;2.60;;;;;;;12.32;55.49;94013.13;5526297;25;20051;-65
2024/04/21 10:28:08;;;;;;;4.85;2.60;;;;;;;12.55;54.84;94015.16;5525496;26;20069;-65
2024/04/21 10:30:35;;;;;;;3.75;2.53;;;;;;;12.57;54.87;93995.78;5523217;26;20024;-65
2024/04/21 10:33:02;;;;;;;3.45;2.85;;;;;;;12.32;58.30;94014.91;5484985;26;20014;-65
2024/04/21 10:35:34;;;;;;;3.80;3.42;;;;;;;12.39;55.20;94003.69;5471919;26;20001;-65
2024/04/21 10:38:21;;;;;;;5.05;2.40;;;;;;;12.46;54.05;94001.28;5527569;25;19994;-65
2024/04/21 10:40:47;;;;;;;4.07;2.50;;;;;;;12.49;54.70;94007.00;5435000;26;19998;-65
2024/04/21 10:43:12;;;;;;;4.07;2.42;;;;;;;12.47;55.16;94000.31;5455806;26;20520;-66
2024/04/21 10:45:38;;;;;;;3.17;2.45;;;;;;;12.27;58.19;93992.75;5428330;26;20003;-64
2024/04/21 10:48:08;;;;;;;2.50;2.30;;;;;;;12.27;58.74;93997.16;5427073;26;20327;-64
2024/04/21 10:50:34;;;;;;;3.33;2.67;;;;;;;12.10;60.00;93992.84;5486251;26;19998;-65
2024/04/21 10:52:59;;;;;;;3.40;2.92;;;;;;;11.52;59.19;93992.50;5486393;26;20096;-65
2024/04/21 10:55:25;;;;;;;5.22;4.20;;;;;;;11.62;61.53;93998.41;5490905;26;20435;-64
2024/04/21 10:57:50;;;;;;;3.75;3.30;;;;;;;11.84;60.80;93997.09;5426693;26;20002;-64
2024/04/21 11:00:15;;;;;;;3.88;3.30;;;;;;;11.71;61.58;93972.47;5455152;26;20042;-65
2024/04/21 11:02:41;;;;;;;5.15;4.03;;;;;;;11.79;60.59;93975.09;5448687;26;20386;-64
2024/04/21 11:05:06;;;;;;;3.92;3.53;;;;;;;11.91;61.12;94007.72;5488033;26;20012;-65
2024/04/21 11:07:33;;;;;;;3.95;3.40;;;;;;;12.04;62.50;94009.91;5428746;26;20026;-64
2024/04/21 11:09:59;;;;;;;3.63;3.17;;;;;;;12.11;62.28;94004.88;5418179;26;20054;-65
2024/04/21 11:12:24;;;;;;;3.83;2.92;;;;;;;12.25;62.21;94018.13;5450634;26;20001;-65
2024/04/21 11:14:59;;;;;;;4.40;3.50;;;;;;;11.81;63.27;94001.75;5438018;26;19993;-64
2024/04/21 11:17:24;;;;;;;5.35;3.40;;;;;;;11.93;62.17;94015.38;5425440;26;20484;-65
2024/04/21 11:19:50;;;;;;;4.10;3.30;;;;;;;11.59;62.06;94024.75;5486825;26;19998;-65
2024/04/21 11:22:16;;;;;;;4.38;3.40;;;;;;;11.29;63.45;94018.19;5452569;26;20031;-65
2024/04/21 11:24:41;;;;;;;4.22;3.35;;;;;;;11.52;64.04;94010.69;5481661;26;20002;-65
2024/04/21 11:27:11;;;;;;;3.78;3.22;;;;;;;11.38;63.53;94006.06;5451610;26;20190;-64
2024/04/21 11:29:37;;;;;;;4.18;3.65;;;;;;;11.56;64.29;94006.00;5430316;26;19998;-64